Time;durP1;ratioP1;P1;durP2;ratioP2;P2;SDS_P1;SDS_P2;PMS_P1;PMS_P2;Temp;Humidity;BMP_temperature;BMP_pressure;BME280_temperature;BME280_humidity;BME280_pressure;Samples;Min_cycle;Max_cycle;Signal;HPM_P1;HPM_P2
2023/05/08 00:01:15;;;;;;;20.05;17.60;;;;;;;16.92;77.60;100683.84;5052513;28;20057;-59
2023/05/08 00:03:42;;;;;;;20.42;18.35;;;;;;;16.96;77.50;100685.59;5052752;28;20060;-59
2023/05/08 00:06:11;;;;;;;22.02;19.70;;;;;;;16.95;77.21;100680.34;5052523;28;20383;-59
2023/05/08 00:08:38;;;;;;;30.80;19.30;;;;;;;16.90;77.22;100684.19;5052973;28;20171;-59
2023/05/08 00:11:05;;;;;;;21.27;19.17;;;;;;;16.91;77.53;100683.03;5052260;28;20057;-57
2023/05/08 00:13:32;;;;;;;17.50;15.75;;;;;;;16.92;77.42;100693.09;5052898;28;20517;-58
2023/05/08 00:16:00;;;;;;;30.45;18.40;;;;;;;16.90;77.27;100695.44;5052172;28;20513;-58
2023/05/08 00:18:27;;;;;;;21.38;18.80;;;;;;;16.89;77.05;100699.44;5052684;28;20064;-58
2023/05/08 00:20:54;;;;;;;18.88;15.93;;;;;;;16.92;77.18;100687.47;5052645;28;20075;-58
2023/05/08 00:23:23;;;;;;;21.50;19.30;;;;;;;16.91;77.34;100691.47;5052947;28;20057;-58
2023/05/08 00:25:50;;;;;;;22.17;19.80;;;;;;;16.87;77.30;100695.34;5052189;28;20049;-58
2023/05/08 00:28:17;;;;;;;24.55;21.95;;;;;;;16.81;76.80;100698.38;5053407;28;20079;-59
2023/05/08 00:30:45;;;;;;;20.30;18.30;;;;;;;16.79;77.00;100695.06;5056878;28;20509;-58
2023/05/08 00:33:12;;;;;;;21.35;19.10;;;;;;;16.77;77.03;100694.59;5056783;28;20053;-58
2023/05/08 00:35:41;;;;;;;19.95;17.90;;;;;;;16.79;77.19;100697.06;5056636;28;20064;-58
2023/05/08 00:38:09;;;;;;;18.65;16.75;;;;;;;16.81;76.88;100706.00;5056745;28;20048;-58
2023/05/08 00:40:37;;;;;;;18.08;16.27;;;;;;;16.81;77.24;100704.00;5056521;28;20076;-58
2023/05/08 00:43:04;;;;;;;21.90;19.43;;;;;;;16.79;77.51;100702.69;5056650;28;20080;-59
2023/05/08 00:45:36;;;;;;;19.88;17.88;;;;;;;16.78;77.08;100704.69;5056395;28;20830;-58
2023/05/08 00:48:04;;;;;;;17.65;15.95;;;;;;;16.80;76.87;100705.19;5056416;28;20501;-58
2023/05/08 00:50:32;;;;;;;19.52;17.40;;;;;;;16.78;76.63;100703.88;5056433;28;20437;-58
2023/05/08 00:53:02;;;;;;;20.50;18.33;;;;;;;16.80;77.26;100707.16;5056631;28;20060;-58
2023/05/08 00:55:30;;;;;;;17.92;15.73;;;;;;;16.79;76.83;100700.69;5056458;28;20060;-58
2023/05/08 00:57:59;;;;;;;19.75;17.60;;;;;;;16.79;77.31;100706.31;5056384;28;20052;-59
2023/05/08 01:00:26;;;;;;;21.67;18.75;;;;;;;16.73;77.18;100704.91;5055945;28;20056;-58
2023/05/08 01:02:53;;;;;;;19.88;17.70;;;;;;;16.73;77.40;100709.72;5056049;28;20049;-59
2023/05/08 01:05:21;;;;;;;17.05;15.25;;;;;;;16.78;76.57;100698.25;5055637;28;20406;-59
2023/05/08 01:07:48;;;;;;;17.90;16.17;;;;;;;16.72;77.12;100705.28;5056171;28;20495;-59
2023/05/08 01:10:15;;;;;;;18.08;15.52;;;;;;;16.71;77.30;100700.81;5055845;28;20510;-59
2023/05/08 01:12:57;;;;;;;17.70;15.98;;;;;;;16.71;76.93;100704.44;5055964;28;20049;-59
2023/05/08 01:15:29;;;;;;;17.25;15.48;;;;;;;16.71;77.03;100706.44;5055716;28;20056;-59
2023/05/08 01:18:08;;;;;;;17.75;15.85;;;;;;;16.68;77.61;100704.34;5055993;28;20395;-59
2023/05/08 01:20:44;;;;;;;17.63;15.73;;;;;;;16.68;77.76;100698.72;5056094;28;20055;-59
2023/05/08 01:23:42;;;;;;;15.45;13.95;;;;;;;16.69;77.38;100700.34;5055220;28;20817;-59
2023/05/08 01:26:39;;;;;;;16.13;14.43;;;;;;;16.67;77.41;100699.88;5055631;28;20068;-59
2023/05/08 01:29:29;;;;;;;17.27;14.38;;;;;;;16.63;77.71;100703.38;5055669;28;20056;-59
2023/05/08 01:32:14;;;;;;;16.95;15.23;;;;;;;16.62;77.96;100704.53;5055648;28;20053;-58
2023/05/08 01:34:49;;;;;;;19.70;17.70;;;;;;;16.64;77.94;100707.84;5053079;28;20053;-59
2023/05/08 01:37:23;;;;;;;20.25;18.15;;;;;;;16.64;77.80;100707.84;5055704;28;20056;-58
2023/05/08 01:39:57;;;;;;;21.48;19.38;;;;;;;16.63;77.34;100703.38;5054739;28;20065;-59
2023/05/08 01:42:33;;;;;;;21.08;18.98;;;;;;;16.61;77.36;100708.53;5055520;28;20397;-59
2023/05/08 01:45:19;;;;;;;20.80;18.60;;;;;;;16.56;76.92;100708.75;5055584;28;20056;-59
2023/05/08 01:47:54;;;;;;;19.85;17.85;;;;;;;16.54;76.89;100708.28;5055790;28;20080;-59
2023/05/08 01:50:26;;;;;;;22.48;20.23;;;;;;;16.55;77.42;100711.94;5055427;28;20360;-59
2023/05/08 01:52:58;;;;;;;24.02;21.52;;;;;;;16.54;77.92;100702.66;5055541;28;20422;-59
2023/05/08 01:55:30;;;;;;;24.08;21.58;;;;;;;16.54;77.72;100711.09;5055403;28;20478;-59
2023/05/08 01:57:59;;;;;;;22.45;20.15;;;;;;;16.55;77.24;100714.75;5055476;28;20048;-59
2023/05/08 02:00:28;;;;;;;21.20;19.02;;;;;;;16.56;77.91;100708.75;5055281;28;20056;-59
2023/05/08 02:02:58;;;;;;;21.13;18.67;;;;;;;16.55;77.75;100718.38;5054451;28;20048;-59
2023/05/08 02:05:27;;;;;;;20.58;18.55;;;;;;;16.54;77.70;100713.91;5054945;28;20056;-59
2023/05/08 02:07:56;;;;;;;22.10;19.75;;;;;;;16.53;78.00;100714.28;5055269;28;20493;-59
2023/05/08 02:10:25;;;;;;;21.15;18.95;;;;;;;16.57;77.95;100709.59;5055082;28;20064;-59
2023/05/08 02:12:55;;;;;;;21.67;19.38;;;;;;;16.55;77.80;100711.94;5055188;28;20056;-59
2023/05/08 02:15:24;;;;;;;25.85;23.25;;;;;;;16.56;77.45;100720.00;5054471;28;20053;-59
2023/05/08 02:17:54;;;;;;;22.80;20.45;;;;;;;16.56;78.12;100711.56;5055248;28;20060;-59
2023/05/08 02:20:23;;;;;;;19.70;17.70;;;;;;;16.60;77.80;100717.31;5054905;28;20402;-59
2023/05/08 02:22:51;;;;;;;24.63;22.05;;;;;;;16.55;77.99;100721.19;5054656;28;20398;-59
2023/05/08 02:25:19;;;;;;;19.37;17.47;;;;;;;16.54;77.71;100719.53;5054644;28;20505;-59
2023/05/08 02:27:48;;;;;;;19.13;17.10;;;;;;;16.50;77.94;100718.59;5054914;28;20045;-59
2023/05/08 02:30:16;;;;;;;17.60;15.87;;;;;;;16.50;77.53;100721.41;5054309;28;20060;-58
2023/05/08 02:32:45;;;;;;;18.23;16.33;;;;;;;16.50;77.49;100720.59;5054592;28;20398;-59
2023/05/08 02:35:14;;;;;;;16.00;14.30;;;;;;;16.52;78.03;100713.44;5054573;28;20048;-58
2023/05/08 02:37:45;;;;;;;16.75;15.07;;;;;;;16.54;77.71;100721.53;5054991;28;20049;-58
2023/05/08 02:40:14;;;;;;;18.00;15.88;;;;;;;16.49;78.54;100719.78;5054334;28;20490;-59
2023/05/08 02:42:42;;;;;;;17.35;15.50;;;;;;;16.45;77.68;100718.81;5054580;28;20493;-59
2023/05/08 02:45:11;;;;;;;18.75;16.30;;;;;;;16.49;77.77;100725.41;5053739;28;20414;-58
2023/05/08 02:47:46;;;;;;;20.02;17.98;;;;;;;16.50;77.75;100721.41;5054333;28;20064;-59
2023/05/08 02:50:18;;;;;;;23.02;20.60;;;;;;;16.50;77.95;100724.22;5053949;28;20057;-58
2023/05/08 02:52:50;;;;;;;21.08;18.88;;;;;;;16.50;77.65;100726.22;5053879;28;20057;-57
2023/05/08 02:55:32;;;;;;;20.45;18.10;;;;;;;16.48;77.54;100717.31;5053719;28;20056;-58
2023/05/08 02:58:09;;;;;;;18.25;16.30;;;;;;;16.46;77.61;100717.63;5053551;28;20048;-58
2023/05/08 03:00:44;;;;;;;22.02;19.75;;;;;;;16.46;77.98;100712.00;5053942;28;20052;-58
2023/05/08 03:03:17;;;;;;;17.13;15.35;;;;;;;16.48;77.58;100718.13;5053876;28;20067;-58
2023/05/08 03:05:52;;;;;;;20.38;18.17;;;;;;;16.49;77.83;100716.16;5053398;28;20053;-58
2023/05/08 03:08:25;;;;;;;20.90;18.70;;;;;;;16.44;77.84;100718.00;5054011;28;20403;-58
2023/05/08 03:10:57;;;;;;;21.00;18.90;;;;;;;16.38;78.06;100712.97;5053662;28;20057;-58
2023/05/08 03:13:27;;;;;;;20.65;18.45;;;;;;;16.40;77.73;100722.69;5053651;28;20398;-58
2023/05/08 03:15:58;;;;;;;21.70;19.42;;;;;;;16.42;78.09;100709.09;5053394;28;20057;-58
2023/05/08 03:18:31;;;;;;;22.00;18.65;;;;;;;16.41;78.23;100715.06;5053628;28;20056;-57
2023/05/08 03:21:00;;;;;;;21.40;19.00;;;;;;;16.41;78.35;100717.88;5053667;28;20057;-58
2023/05/08 03:23:31;;;;;;;20.23;18.03;;;;;;;16.41;77.83;100723.50;5053464;28;20061;-58
2023/05/08 03:25:59;;;;;;;22.83;20.42;;;;;;;16.34;77.39;100726.06;5053267;28;20486;-57
2023/05/08 03:28:27;;;;;;;20.42;17.83;;;;;;;16.34;78.33;100734.50;5053333;28;20059;-58
2023/05/08 03:30:57;;;;;;;20.13;18.02;;;;;;;16.32;77.99;100726.41;5053538;28;20049;-59
2023/05/08 03:33:25;;;;;;;20.73;18.52;;;;;;;16.31;77.60;100721.94;5053661;28;20052;-58
2023/05/08 03:35:54;;;;;;;21.60;19.40;;;;;;;16.29;77.68;100731.91;5052929;28;20513;-58
2023/05/08 03:38:21;;;;;;;20.80;18.60;;;;;;;16.28;78.29;100727.47;5053294;28;20479;-58
2023/05/08 03:40:50;;;;;;;22.90;19.48;;;;;;;16.29;77.54;100717.84;5052705;28;20048;-57
2023/05/08 03:43:18;;;;;;;24.30;21.57;;;;;;;16.27;78.33;100723.00;5053197;28;20057;-58
2023/05/08 03:45:46;;;;;;;24.83;22.33;;;;;;;16.28;77.92;100722.66;5052953;28;20470;-58
2023/05/08 03:48:14;;;;;;;20.50;18.27;;;;;;;16.28;77.72;100719.03;5053362;28;20219;-58
2023/05/08 03:50:41;;;;;;;23.58;21.20;;;;;;;16.30;78.07;100727.94;5053009;28;20055;-58
2023/05/08 03:53:09;;;;;;;21.20;18.83;;;;;;;16.30;77.92;100717.50;5053081;28;20397;-58
2023/05/08 03:55:36;;;;;;;24.80;22.13;;;;;;;16.28;77.63;100719.84;5052611;28;20513;-58
2023/05/08 03:58:17;;;;;;;24.80;22.10;;;;;;;16.29;77.64;100720.66;5052970;28;20150;-58
2023/05/08 04:00:54;;;;;;;17.20;15.50;;;;;;;16.34;77.47;100717.63;5052724;28;20068;-58
2023/05/08 04:03:24;;;;;;;19.90;17.83;;;;;;;16.34;77.79;100723.25;5052382;28;20060;-58
2023/05/08 04:05:59;;;;;;;19.40;17.40;;;;;;;16.34;77.38;100714.81;5052267;28;20053;-58
2023/05/08 04:08:29;;;;;;;18.90;17.00;;;;;;;16.31;77.40;100730.38;5052312;28;20053;-58
2023/05/08 04:11:01;;;;;;;;;;;;;;;16.29;77.40;100723.47;5052796;28;20057;-58
2023/05/08 04:13:36;;;;;;;22.63;20.20;;;;;;;16.25;77.80;100720.50;5053097;28;19943;-58
2023/05/08 04:16:07;;;;;;;24.00;21.40;;;;;;;16.26;77.53;100721.38;5052096;28;20425;-58
2023/05/08 04:18:37;;;;;;;22.80;20.38;;;;;;;16.33;77.87;100718.78;5052498;28;20497;-58
2023/05/08 04:21:10;;;;;;;24.77;22.17;;;;;;;16.33;77.90;100715.97;5052522;28;20512;-57
2023/05/08 04:23:40;;;;;;;20.05;18.05;;;;;;;16.35;77.58;100719.25;5052310;28;20060;-58
2023/05/08 04:26:08;;;;;;;;;;;;;;;16.35;77.89;100719.25;5053005;28;20494;-58
2023/05/08 04:28:37;;;;;;;25.00;22.30;;;;;;;16.34;78.23;100724.06;5052327;28;19921;-58
2023/05/08 04:31:05;;;;;;;20.77;18.67;;;;;;;16.40;78.18;100717.06;5052598;28;20057;-57
2023/05/08 04:33:34;;;;;;;20.50;18.30;;;;;;;16.43;78.39;100726.78;5052638;28;20064;-58
2023/05/08 04:36:02;;;;;;;19.08;17.23;;;;;;;16.49;77.91;100733.00;5052601;28;20056;-56
2023/05/08 04:38:30;;;;;;;19.90;17.80;;;;;;;16.49;78.48;100728.19;5051874;28;20060;-58
2023/05/08 04:40:57;;;;;;;19.33;17.35;;;;;;;16.56;78.67;100742.50;5052361;28;20410;-60
2023/05/08 04:43:26;;;;;;;20.83;18.40;;;;;;;16.57;78.61;100735.72;5052505;28;20053;-58
2023/05/08 04:45:54;;;;;;;22.42;20.10;;;;;;;16.53;78.83;100740.41;5052168;28;20059;-58
2023/05/08 04:48:22;;;;;;;23.77;21.13;;;;;;;16.55;78.89;100734.44;5051912;28;20052;-57
2023/05/08 04:50:49;;;;;;;18.50;16.58;;;;;;;16.56;78.64;100731.25;5051802;28;20048;-58
2023/05/08 04:53:16;;;;;;;18.33;16.52;;;;;;;16.66;78.11;100727.19;5052252;28;20049;-58
2023/05/08 04:55:44;;;;;;;17.83;16.15;;;;;;;16.70;77.67;100736.56;5052327;28;20059;-58
2023/05/08 04:58:11;;;;;;;13.65;12.15;;;;;;;16.74;77.51;100737.50;5052494;28;20489;-58
2023/05/08 05:00:38;;;;;;;13.90;12.50;;;;;;;16.77;77.39;100741.59;5052078;28;20063;-58
2023/05/08 05:03:07;;;;;;;15.88;14.27;;;;;;;16.77;77.02;100741.59;5052077;28;20375;-58
2023/05/08 05:05:35;;;;;;;14.60;13.10;;;;;;;16.84;77.52;100741.88;5052090;28;20059;-58
2023/05/08 05:08:03;;;;;;;15.15;13.15;;;;;;;16.87;77.25;100741.19;5052295;28;20405;-58
2023/05/08 05:10:30;;;;;;;14.85;13.45;;;;;;;16.91;77.39;100749.75;5051947;28;20418;-58
2023/05/08 05:12:57;;;;;;;17.25;15.45;;;;;;;16.95;77.13;100748.69;5052021;28;20064;-58
2023/05/08 05:15:24;;;;;;;18.52;16.52;;;;;;;17.00;77.09;100753.25;5053683;28;20056;-58
2023/05/08 05:17:52;;;;;;;20.60;18.52;;;;;;;17.01;76.77;100752.91;5055324;28;20049;-58
2023/05/08 05:20:20;;;;;;;21.42;19.33;;;;;;;17.10;77.32;100761.22;5055574;28;20412;-59
2023/05/08 05:22:48;;;;;;;17.65;15.85;;;;;;;17.17;77.14;100757.81;5056163;28;20061;-58
2023/05/08 05:25:15;;;;;;;19.70;17.65;;;;;;;17.25;77.00;100766.16;5055804;28;20056;-58
2023/05/08 05:27:42;;;;;;;16.75;15.15;;;;;;;17.33;76.66;100758.75;5055312;28;20516;-58
2023/05/08 05:30:11;;;;;;;18.60;16.70;;;;;;;17.37;76.87;100765.34;5055430;28;20063;-58
2023/05/08 05:32:38;;;;;;;17.75;15.98;;;;;;;17.45;76.56;100758.75;5055965;28;20482;-58
2023/05/08 05:35:06;;;;;;;20.60;18.17;;;;;;;17.50;75.90;100763.31;5055290;28;20073;-58
2023/05/08 05:37:35;;;;;;;19.70;17.70;;;;;;;17.53;76.10;100756.16;5055578;28;20490;-58
2023/05/08 05:40:02;;;;;;;23.17;20.50;;;;;;;17.58;76.17;100765.19;5055616;28;20049;-59
2023/05/08 05:42:29;;;;;;;17.50;15.48;;;;;;;17.73;75.49;100765.63;5055547;28;20045;-58
2023/05/08 05:44:57;;;;;;;21.90;19.38;;;;;;;17.79;74.98;100758.56;5055120;28;20060;-58
2023/05/08 05:47:25;;;;;;;16.67;14.65;;;;;;;17.88;74.84;100761.28;5055313;28;20056;-59
2023/05/08 05:49:52;;;;;;;19.05;17.23;;;;;;;18.01;74.51;100766.50;5055317;28;20056;-58
2023/05/08 05:52:20;;;;;;;18.38;16.58;;;;;;;18.12;74.14;100764.00;5055405;28;20371;-58
2023/05/08 05:54:48;;;;;;;17.92;16.08;;;;;;;18.30;74.36;100767.31;5054879;28;20077;-58
2023/05/08 05:57:16;;;;;;;12.63;11.33;;;;;;;18.49;72.92;100769.44;5055183;28;20053;-58
2023/05/08 05:59:44;;;;;;;12.73;11.43;;;;;;;18.59;71.93;100774.56;5054963;28;20099;-59
2023/05/08 06:02:16;;;;;;;13.48;11.95;;;;;;;18.75;71.03;100770.94;5055083;28;20049;-59
2023/05/08 06:04:43;;;;;;;12.13;11.00;;;;;;;18.88;70.90;100774.53;5054855;28;20058;-58
2023/05/08 06:07:10;;;;;;;10.98;9.82;;;;;;;19.05;69.22;100780.63;5054899;28;20132;-58
2023/05/08 06:09:37;;;;;;;12.93;11.63;;;;;;;19.12;69.10;100779.19;5054730;28;20049;-58
2023/05/08 06:12:07;;;;;;;9.13;8.30;;;;;;;19.27;68.06;100781.16;5054818;28;20501;-59
2023/05/08 06:14:34;;;;;;;9.02;8.23;;;;;;;19.38;67.30;100773.78;5054668;28;20080;-58
2023/05/08 06:17:01;;;;;;;9.27;8.38;;;;;;;19.42;67.49;100771.03;5055033;28;20593;-58
2023/05/08 06:19:28;;;;;;;10.23;9.32;;;;;;;19.52;67.03;100776.09;5054615;28;20053;-59
2023/05/08 06:21:56;;;;;;;11.57;10.35;;;;;;;19.73;66.73;100775.81;5054734;28;20060;-57
2023/05/08 06:24:23;;;;;;;8.50;7.70;;;;;;;19.95;66.19;100776.25;5054706;28;20048;-57
2023/05/08 06:26:50;;;;;;;6.90;6.15;;;;;;;19.95;65.51;100773.44;5054295;28;20064;-60
2023/05/08 06:29:19;;;;;;;7.30;6.60;;;;;;;20.08;64.45;100774.94;5054577;28;20049;-58
2023/05/08 06:31:46;;;;;;;7.23;6.53;;;;;;;20.15;64.98;100774.28;5054501;28;20068;-58
2023/05/08 06:34:13;;;;;;;9.95;7.05;;;;;;;20.24;64.08;100778.53;5054742;28;20475;-59
2023/05/08 06:36:41;;;;;;;7.10;5.78;;;;;;;20.31;64.45;100774.19;5054763;28;20410;-58
2023/05/08 06:39:08;;;;;;;7.57;6.82;;;;;;;20.41;64.75;100780.06;5054853;28;20379;-58
2023/05/08 06:41:35;;;;;;;6.78;6.05;;;;;;;20.48;64.66;100783.03;5054520;28;20505;-59
2023/05/08 06:44:03;;;;;;;6.53;5.93;;;;;;;20.70;63.59;100776.97;5054325;28;20060;-59
2023/05/08 06:46:31;;;;;;;7.88;6.10;;;;;;;20.78;63.07;100782.41;5054078;28;20053;-59
2023/05/08 06:48:59;;;;;;;7.50;6.70;;;;;;;21.03;62.83;100787.69;5054460;28;20371;-59
2023/05/08 06:51:26;;;;;;;6.78;5.72;;;;;;;21.24;62.60;100795.72;5054352;28;20056;-59
2023/05/08 06:53:53;;;;;;;8.23;6.10;;;;;;;21.39;61.91;100791.91;5054262;28;20056;-59
2023/05/08 06:56:21;;;;;;;8.27;6.30;;;;;;;21.40;61.58;100792.75;5054041;28;20053;-59
2023/05/08 06:58:48;;;;;;;6.88;5.47;;;;;;;21.44;60.31;100796.47;5054200;28;20041;-59
2023/05/08 07:01:16;;;;;;;4.20;3.80;;;;;;;21.54;59.44;100797.84;5053693;28;20049;-59
2023/05/08 07:03:45;;;;;;;5.15;4.25;;;;;;;21.32;58.66;100789.00;5053891;28;20064;-59
2023/05/08 07:06:12;;;;;;;6.90;4.53;;;;;;;21.27;59.31;100789.28;5054011;28;20406;-59
2023/05/08 07:08:39;;;;;;;5.85;4.65;;;;;;;21.11;59.75;100803.63;5053755;28;20053;-59
2023/05/08 07:11:08;;;;;;;5.20;4.70;;;;;;;21.07;59.89;100797.06;5053744;28;20067;-59
2023/05/08 07:13:36;;;;;;;5.65;4.53;;;;;;;21.01;60.24;100788.06;5053865;28;20049;-59
2023/05/08 07:16:04;;;;;;;5.10;4.45;;;;;;;20.95;60.44;100786.75;5053400;28;20053;-59
2023/05/08 07:18:31;;;;;;;6.20;4.43;;;;;;;20.92;60.71;100784.69;5053469;28;20071;-58
2023/05/08 07:20:59;;;;;;;5.85;4.57;;;;;;;20.99;60.74;100783.97;5053482;28;20060;-58
2023/05/08 07:23:27;;;;;;;5.97;4.40;;;;;;;20.91;60.75;100787.88;5053605;28;20064;-58
2023/05/08 07:25:54;;;;;;;6.03;5.07;;;;;;;20.82;61.16;100788.94;5053758;28;20482;-58
2023/05/08 07:28:22;;;;;;;6.13;4.90;;;;;;;20.63;62.03;100789.00;5053816;28;20057;-58
2023/05/08 07:30:49;;;;;;;5.45;4.90;;;;;;;20.71;61.73;100781.47;5053270;28;20053;-59
2023/05/08 07:33:16;;;;;;;5.13;4.63;;;;;;;20.90;62.23;100774.94;5053677;28;20068;-58
2023/05/08 07:35:44;;;;;;;5.35;4.50;;;;;;;20.84;61.67;100771.59;5053488;28;20053;-58
2023/05/08 07:38:12;;;;;;;4.95;4.40;;;;;;;20.89;61.55;100776.91;5052608;28;20053;-58
2023/05/08 07:40:40;;;;;;;7.57;4.32;;;;;;;20.85;61.65;100776.03;5053025;28;20505;-58
2023/05/08 07:43:07;;;;;;;4.70;4.30;;;;;;;20.92;61.07;100776.19;5053387;28;20061;-57
2023/05/08 07:45:35;;;;;;;4.57;3.53;;;;;;;21.06;61.03;100772.75;5053210;28;20490;-58
2023/05/08 07:48:03;;;;;;;4.50;4.10;;;;;;;21.18;60.57;100775.41;5053115;28;20060;-59
2023/05/08 07:50:31;;;;;;;7.68;4.57;;;;;;;21.36;61.21;100772.88;5053386;28;20057;-58
2023/05/08 07:52:58;;;;;;;4.72;3.78;;;;;;;21.59;60.31;100772.03;5053054;28;20049;-58
2023/05/08 07:55:27;;;;;;;4.32;3.38;;;;;;;21.70;60.09;100772.97;5052977;28;20053;-58
2023/05/08 07:57:54;;;;;;;4.78;3.72;;;;;;;21.68;60.11;100775.38;5052863;28;20057;-58
2023/05/08 08:00:21;;;;;;;5.13;3.88;;;;;;;21.84;59.94;100778.06;5052562;28;20060;-58
2023/05/08 08:02:49;;;;;;;5.57;3.67;;;;;;;21.91;58.48;100777.31;5052854;28;20504;-58
2023/05/08 08:05:16;;;;;;;3.83;3.42;;;;;;;21.89;58.78;100770.00;5052681;28;20053;-59
2023/05/08 08:07:43;;;;;;;4.40;3.85;;;;;;;21.98;58.27;100769.72;5056392;28;20056;-58
2023/05/08 08:10:11;;;;;;;3.97;3.50;;;;;;;21.86;58.18;100773.63;5052696;28;20049;-58
2023/05/08 08:12:39;;;;;;;4.13;3.60;;;;;;;21.66;58.28;100770.09;5052737;28;20167;-58
2023/05/08 08:15:08;;;;;;;3.90;3.45;;;;;;;21.74;57.77;100771.03;5052719;28;20065;-58
2023/05/08 08:17:35;;;;;;;4.10;3.33;;;;;;;21.80;57.20;100777.19;5052730;28;20132;-59
2023/05/08 08:20:03;;;;;;;4.60;3.35;;;;;;;21.81;56.76;100778.81;5052647;28;20056;-58
2023/05/08 08:22:30;;;;;;;4.80;3.88;;;;;;;21.73;56.88;100777.88;5052634;28;20049;-58
2023/05/08 08:24:57;;;;;;;3.63;3.33;;;;;;;21.78;57.18;100783.22;5052689;28;20482;-58
2023/05/08 08:27:24;;;;;;;3.65;3.35;;;;;;;21.39;57.65;100788.28;5052488;28;20060;-58
2023/05/08 08:29:53;;;;;;;4.82;3.30;;;;;;;21.43;57.42;100792.81;5052631;28;20072;-58
2023/05/08 08:32:20;;;;;;;4.22;3.20;;;;;;;21.46;57.45;100794.06;5052489;28;20052;-59
2023/05/08 08:34:47;;;;;;;4.25;3.47;;;;;;;21.36;57.82;100794.72;5052340;28;20064;-59
2023/05/08 08:37:15;;;;;;;4.57;3.58;;;;;;;21.15;58.39;100792.34;5052167;28;20057;-58
2023/05/08 08:39:42;;;;;;;4.28;3.88;;;;;;;21.14;59.31;100802.03;5052491;28;20053;-58
2023/05/08 08:42:11;;;;;;;6.53;4.22;;;;;;;21.21;58.99;100802.16;5052400;28;20056;-58
2023/05/08 08:44:38;;;;;;;4.38;3.35;;;;;;;21.25;58.80;100797.34;5052551;28;20049;-58
2023/05/08 08:47:10;;;;;;;5.25;3.97;;;;;;;21.30;59.18;100791.38;5052407;28;20076;-58
2023/05/08 08:49:47;;;;;;;5.43;4.07;;;;;;;21.35;59.35;100805.22;5053420;28;20505;-58
2023/05/08 08:52:22;;;;;;;4.78;4.25;;;;;;;21.46;59.33;100806.25;5056235;28;20059;-57
2023/05/08 08:54:51;;;;;;;5.85;4.90;;;;;;;21.66;60.23;100812.63;5056731;28;20478;-58
2023/05/08 08:57:20;;;;;;;6.82;5.65;;;;;;;21.85;60.37;100808.84;5056274;28;20060;-57
2023/05/08 08:59:47;;;;;;;7.28;5.78;;;;;;;22.04;59.56;100805.03;5055854;28;20589;-57
2023/05/08 09:02:19;;;;;;;5.80;4.93;;;;;;;22.25;59.39;100807.38;5055775;28;20052;-58
2023/05/08 09:04:49;;;;;;;5.82;5.22;;;;;;;22.44;59.37;100802.72;5056544;28;20049;-58
2023/05/08 09:07:18;;;;;;;7.80;5.22;;;;;;;22.69;58.84;100812.34;5056264;28;20053;-58
2023/05/08 09:09:46;;;;;;;6.88;6.22;;;;;;;22.78;58.68;100806.34;5056191;28;20478;-58
2023/05/08 09:12:13;;;;;;;7.85;6.53;;;;;;;22.93;57.85;100807.31;5056179;28;20052;-58
2023/05/08 09:14:40;;;;;;;7.88;6.88;;;;;;;23.19;57.39;100808.41;5056130;28;20060;-58
2023/05/08 09:17:09;;;;;;;7.68;5.90;;;;;;;23.49;57.08;100806.19;5055980;28;20053;-58
2023/05/08 09:19:38;;;;;;;7.00;5.67;;;;;;;23.81;56.53;100805.63;5056512;28;20462;-58
2023/05/08 09:22:08;;;;;;;7.50;5.38;;;;;;;24.02;55.31;100802.09;5055894;28;20463;-58
2023/05/08 09:24:54;;;;;;;5.45;4.90;;;;;;;24.27;53.78;100807.91;5055714;28;20057;-58
2023/05/08 09:27:22;;;;;;;5.88;4.13;;;;;;;24.30;53.09;100801.38;5055801;28;20079;-58
2023/05/08 09:30:01;;;;;;;4.35;3.92;;;;;;;24.78;52.34;100806.03;5055563;28;20053;-64
2023/05/08 09:32:29;;;;;;;4.93;3.80;;;;;;;25.02;51.65;100810.13;5055870;28;20053;-58
2023/05/08 09:34:58;;;;;;;5.07;4.20;;;;;;;24.98;51.07;100808.50;5055978;28;20049;-59
2023/05/08 09:37:27;;;;;;;4.82;4.20;;;;;;;25.05;50.96;100794.25;5055626;28;20056;-59
2023/05/08 09:39:54;;;;;;;3.97;3.22;;;;;;;24.89;50.14;100797.50;5055906;28;20391;-59
2023/05/08 09:42:24;;;;;;;4.22;3.33;;;;;;;24.50;51.11;100792.53;5055502;28;20063;-59
2023/05/08 09:44:52;;;;;;;;;;;;;;;24.31;51.12;100805.03;5056123;28;20056;-59
2023/05/08 09:47:20;;;;;;;4.72;3.55;;;;;;;24.13;52.77;100802.13;5054829;28;20301;-58
2023/05/08 09:49:59;;;;;;;5.38;3.90;;;;;;;24.18;52.95;100812.31;5055215;28;20430;-58
2023/05/08 09:52:27;;;;;;;4.88;4.38;;;;;;;23.96;54.23;100808.53;5054965;28;20057;-58
2023/05/08 09:54:59;;;;;;;4.43;3.90;;;;;;;23.61;53.59;100812.78;5055319;28;20060;-59
2023/05/08 09:57:26;;;;;;;6.25;4.05;;;;;;;23.43;53.84;100810.59;5054900;28;20533;-58
2023/05/08 10:00:01;;;;;;;6.43;4.45;;;;;;;23.41;54.00;100809.38;5055265;28;20048;-58
2023/05/08 10:02:29;;;;;;;4.68;3.83;;;;;;;23.21;53.93;100812.47;5054035;28;20064;-59
2023/05/08 10:04:58;;;;;;;4.97;4.47;;;;;;;23.28;53.98;100811.72;5055401;28;20056;-58
2023/05/08 10:07:30;;;;;;;5.28;4.78;;;;;;;23.15;54.08;100816.06;5054727;28;20410;-59
2023/05/08 10:10:01;;;;;;;5.95;4.70;;;;;;;23.15;55.00;100807.53;5054944;28;20053;-58
2023/05/08 10:12:29;;;;;;;4.68;3.85;;;;;;;22.94;54.06;100811.78;5055375;28;20056;-54
2023/05/08 10:14:57;;;;;;;4.28;3.88;;;;;;;22.73;55.36;100809.53;5054794;28;20060;-55
2023/05/08 10:17:37;;;;;;;5.20;4.15;;;;;;;22.31;56.26;100809.88;5054769;28;20053;-55
2023/05/08 10:20:08;;;;;;;4.72;4.20;;;;;;;21.79;58.89;100815.22;5055246;28;20048;-54
2023/05/08 10:22:38;;;;;;;4.93;4.40;;;;;;;22.19;58.17;100823.06;5054569;28;20052;-55
2023/05/08 10:25:12;;;;;;;7.28;4.28;;;;;;;22.13;58.00;100824.59;5054706;28;20127;-55
2023/05/08 10:27:47;;;;;;;5.07;4.32;;;;;;;21.89;58.29;100831.59;5054719;28;20410;-55
2023/05/08 10:30:17;;;;;;;5.20;3.90;;;;;;;21.79;58.16;100824.53;5054668;28;20049;-54
2023/05/08 10:32:50;;;;;;;4.30;3.90;;;;;;;22.14;58.49;100828.28;5054653;28;20418;-56
2023/05/08 10:35:19;;;;;;;4.45;4.05;;;;;;;22.17;57.92;100834.00;5054831;28;20079;-56
2023/05/08 10:37:48;;;;;;;7.15;4.30;;;;;;;21.85;58.52;100827.88;5054797;28;20486;-55
2023/05/08 10:40:15;;;;;;;4.18;3.78;;;;;;;21.84;58.80;100827.06;5054729;28;20478;-56
2023/05/08 10:42:43;;;;;;;3.95;3.55;;;;;;;21.87;59.11;100829.13;5054362;28;20459;-58
2023/05/08 10:45:23;;;;;;;5.28;3.50;;;;;;;21.53;59.70;100828.22;5054183;28;20057;-56
2023/05/08 10:47:59;;;;;;;5.25;4.20;;;;;;;21.21;60.66;100830.50;5053855;28;20053;-53
2023/05/08 10:50:51;;;;;;;4.78;3.80;;;;;;;21.15;61.00;100827.16;5054117;28;20049;-56
2023/05/08 10:53:25;;;;;;;4.22;3.83;;;;;;;21.24;61.01;100827.72;5054071;28;20056;-55
2023/05/08 10:55:53;;;;;;;4.20;3.80;;;;;;;21.49;60.85;100819.66;5053957;28;20056;-56
2023/05/08 10:58:34;;;;;;;3.45;3.15;;;;;;;21.35;60.53;100822.22;5054044;28;20053;-56
2023/05/08 11:01:15;;;;;;;3.67;3.38;;;;;;;21.52;60.43;100811.59;5053702;28;20053;-56
2023/05/08 11:03:49;;;;;;;3.78;3.45;;;;;;;21.85;59.31;100813.69;5053983;28;20052;-56
2023/05/08 11:06:45;;;;;;;3.97;3.47;;;;;;;21.66;58.73;100806.94;5053869;28;20060;-56
2023/05/08 11:09:25;;;;;;;4.15;3.05;;;;;;;21.25;60.36;100811.53;5053614;28;20053;-56
2023/05/08 11:12:04;;;;;;;4.25;2.80;;;;;;;21.57;60.55;100803.56;5053401;28;20402;-56
2023/05/08 11:14:33;;;;;;;3.53;3.22;;;;;;;22.05;58.82;100806.69;5053540;28;20497;-56
2023/05/08 11:17:06;;;;;;;;;;;;;;;22.39;57.82;100808.78;5053890;28;20061;-56
2023/05/08 11:19:35;;;;;;;3.45;2.90;;;;;;;22.40;57.64;100805.53;5053808;28;19928;-56
2023/05/08 11:22:27;;;;;;;3.88;2.80;;;;;;;22.72;57.56;100796.56;5053639;28;20406;-56
2023/05/08 11:25:00;;;;;;;3.10;2.78;;;;;;;22.81;56.62;100801.94;5053747;28;20505;-56
2023/05/08 11:28:09;;;;;;;4.40;2.75;;;;;;;22.89;55.94;100792.28;5053555;28;20056;-55
2023/05/08 11:30:40;;;;;;;;;;;;;;;23.19;55.69;100788.50;5033918;28;20056;-56